Kala Airport


Codes: FZFL/
Name: Kala Airport
City: Kala
Country: Congo [DRC]
Elevation: 1640 ft.

Photos at Kala Airport


   Photos courtesy of SpottingLog. You can add your own sightings and photos by signing up for a free trial today.



No photos found.

Weather at Kala Airport


Time (UTC)DescriptionTempratureWindCloud coverageVisibilityPressureHumidity
19-Apr-2024 06:00Overcast Clouds23°C4 mph, S100%10000m1011hPa95%
19-Apr-2024 09:00Overcast Clouds26°C4 mph, S96%10000m1011hPa78%
19-Apr-2024 12:00Overcast Clouds30°C7 mph, SW91%10000m1009hPa57%
19-Apr-2024 15:00Scattered Clouds32°C7 mph, SW40%10000m1007hPa48%
19-Apr-2024 18:00Few Clouds25°C4 mph, S21%10000m1008hPa74%
19-Apr-2024 21:00Broken Clouds24°C4 mph, SW57%10000m1009hPa80%
20-Apr-2024 00:00Broken Clouds23°C2 mph, SW78%10000m1009hPa86%
20-Apr-2024 03:00Overcast Clouds22°C4 mph, SW98%10000m1009hPa88%
20-Apr-2024 06:00Overcast Clouds24°C4 mph, SW97%10000m1011hPa78%
20-Apr-2024 09:00Broken Clouds33°C4 mph, SW63%10000m1010hPa42%
20-Apr-2024 12:00Scattered Clouds37°C7 mph, S46%10000m1005hPa31%
20-Apr-2024 15:00Scattered Clouds37°C7 mph, S25%10000m1003hPa31%
20-Apr-2024 18:00Scattered Clouds29°C4 mph, SE27%10000m1005hPa53%
20-Apr-2024 21:00Light Rain25°C4 mph, S68%10000m1007hPa75%
21-Apr-2024 00:00Light Rain23°C2 mph, S82%10000m1008hPa88%
21-Apr-2024 03:00Overcast Clouds23°C2 mph, S100%10000m1007hPa87%
21-Apr-2024 06:00Overcast Clouds25°C2 mph, SE91%10000m1009hPa78%
21-Apr-2024 09:00Overcast Clouds34°C4 mph, S93%10000m1008hPa45%
21-Apr-2024 12:00Overcast Clouds39°C4 mph, S97%10000m1004hPa31%
21-Apr-2024 15:00Overcast Clouds36°C2 mph, SE89%10000m1002hPa36%
21-Apr-2024 18:00Overcast Clouds29°C4 mph, SE93%10000m1003hPa55%
21-Apr-2024 21:00Overcast Clouds26°C2 mph, SE87%10000m1007hPa69%
22-Apr-2024 00:00Light Rain23°C2 mph, W89%10000m1007hPa85%
22-Apr-2024 03:00Overcast Clouds23°C4 mph, S86%10000m1007hPa87%
22-Apr-2024 06:00Overcast Clouds25°C4 mph, S90%10000m1009hPa77%
22-Apr-2024 09:00Overcast Clouds33°C4 mph, S99%10000m1009hPa45%
22-Apr-2024 12:00Overcast Clouds37°C7 mph, SE100%10000m1005hPa35%
22-Apr-2024 15:00Overcast Clouds36°C7 mph, S99%10000m1003hPa36%
22-Apr-2024 18:00Light Rain28°C2 mph, S99%10000m1004hPa66%
22-Apr-2024 21:00Overcast Clouds26°C4 mph, SW100%10000m1006hPa73%
23-Apr-2024 00:00Overcast Clouds24°C4 mph, W97%10000m1006hPa77%
23-Apr-2024 03:00Broken Clouds23°C2 mph, W71%10000m1007hPa83%
23-Apr-2024 06:00Scattered Clouds26°C4 mph, SW49%10000m1009hPa74%
23-Apr-2024 09:00Overcast Clouds34°C4 mph, SW87%10000m1009hPa44%
23-Apr-2024 12:00Overcast Clouds39°C4 mph, S93%10000m1005hPa31%
23-Apr-2024 15:00Overcast Clouds34°C7 mph, S89%10000m1002hPa43%
23-Apr-2024 18:00Light Rain28°C4 mph, SW75%10000m1005hPa70%
23-Apr-2024 21:00Heavy Intensity Rain23°C4 mph, SW100%4802m1009hPa99%
24-Apr-2024 00:00Moderate Rain23°C2 mph, NW100%10000m1006hPa96%
24-Apr-2024 03:00Overcast Clouds23°C2 mph, S100%10000m1007hPa95%